»·PEaware :: SWA684 KABQ-KDAL

SWA684 :: KABQ-KDAL

FLIGHT INFORMATION

Flight Status: Arrived
Operator:
Southwest Airlines
More flights by this operator :: More flights under this callsign
Pilot: Drew L. (13237)
Aircraft: BOEING 737-800
(B738)
More flights by this aircraft type
Origin: KABQ Albuquerque Intl Sunport
United States
Destination: KDAL Dallas Love
United States
More flights between these airports :: More routes between these airports
Route: DOOKK3 CME BGS BGTOE BACHR4
File this flight plan on PilotEdge
Remarks: RMK / SIMBRIEF
Altitude:
(Current/Filed)
35,000ft
Speed:
(Current/Filed)
473kts
Departed: 21-Sep-19 08:47 PM
Arrived: 21-Sep-19 10:20 PM
Distance/Time
Traveled:
503nm/1:33
Distance/Time
To Go:
Arrived

Flight Plot

Page will automatically refresh every two minutes.

Flight plan parsing failed; only flown route is shown


Map Options




Map Legend


Flown Route
Filed Route
Departure Airport
Arrival Airport
Navaid (VOR, NDB)
Fix

Horizontal Profiles

Position Reports

Time Latitude Longitude Heading Altitude Ground
Speed
21-Sep-19 20:22 35.046907 -106.616401 11 5322ft 0kts
21-Sep-19 20:23 35.046907 -106.616401 11 5322ft 0kts
21-Sep-19 20:24 35.046907 -106.616401 11 5322ft 0kts
21-Sep-19 20:25 35.046907 -106.616401 11 5322ft 0kts
21-Sep-19 20:26 35.046907 -106.616401 11 5322ft 0kts
21-Sep-19 20:27 35.046907 -106.616401 11 5322ft 0kts
21-Sep-19 20:28 35.046538 -106.616654 11 5322ft 0kts
21-Sep-19 20:29 35.046538 -106.616654 11 5322ft 0kts
21-Sep-19 20:30 35.046538 -106.616654 11 5322ft 0kts
21-Sep-19 20:31 35.046538 -106.616654 11 5322ft 0kts
21-Sep-19 20:32 35.046538 -106.616654 11 5322ft 0kts
21-Sep-19 20:33 35.046566 -106.616625 48 5322ft 1kts
21-Sep-19 20:34 35.046364 -106.616483 191 5322ft 0kts
21-Sep-19 20:35 35.046364 -106.616483 191 5322ft 0kts
21-Sep-19 20:36 35.046364 -106.616483 191 5322ft 0kts
21-Sep-19 20:37 35.046364 -106.616483 191 5322ft 0kts
21-Sep-19 20:39 35.045735 -106.616916 203 5322ft 0kts
21-Sep-19 20:40 35.043578 -106.613769 181 5322ft 23kts
21-Sep-19 20:41 35.042407 -106.608533 90 5322ft 20kts
21-Sep-19 20:42 35.042404 -106.608253 90 5322ft 0kts
21-Sep-19 20:43 35.042404 -106.608253 90 5322ft 0kts
21-Sep-19 20:44 35.042404 -106.608253 90 5322ft 0kts
21-Sep-19 20:45 35.042404 -106.608253 90 5322ft 0kts
21-Sep-19 20:46 35.042371 -106.607278 106 5322ft 12kts
21-Sep-19 20:47 35.029547 -106.621806 223 5321ft 156kts
21-Sep-19 20:48 34.995535 -106.663020 217 6739ft 169kts
21-Sep-19 20:49 34.952834 -106.694316 196 8278ft 199kts
21-Sep-19 20:50 34.891778 -106.684859 152 10331ft 260kts
21-Sep-19 20:51 34.833849 -106.612342 126 11392ft 340kts
21-Sep-19 20:52 34.800760 -106.496717 115 13374ft 370kts
21-Sep-19 20:53 34.756577 -106.380927 119 15525ft 383kts
21-Sep-19 20:54 34.710136 -106.260760 120 17462ft 395kts
21-Sep-19 20:55 34.662599 -106.138062 120 19202ft 406kts
21-Sep-19 20:56 34.613912 -106.011807 120 20788ft 417kts
21-Sep-19 20:57 34.563835 -105.882432 121 22237ft 426kts
21-Sep-19 20:58 34.512772 -105.751027 121 23538ft 434kts
21-Sep-19 20:59 34.448432 -105.629320 143 24718ft 423kts
21-Sep-19 21:00 34.355618 -105.544074 153 25798ft 419kts
21-Sep-19 21:01 34.258382 -105.464446 153 26809ft 424kts
21-Sep-19 21:01 34.176473 -105.397392 153 27515ft 429kts
21-Sep-19 21:03 34.060624 -105.302831 154 28595ft 435kts
21-Sep-19 21:04 33.960969 -105.217997 150 29597ft 446kts
21-Sep-19 21:04 33.879873 -105.139346 150 30378ft 450kts
21-Sep-19 21:06 33.766777 -105.030490 150 31936ft 441kts
21-Sep-19 21:06 33.687186 -104.954145 150 32886ft 436kts
21-Sep-19 21:08 33.577420 -104.849164 149 34051ft 428kts
21-Sep-19 21:09 33.484496 -104.760568 149 34745ft 427kts
21-Sep-19 21:09 33.407084 -104.686973 149 35069ft 431kts
21-Sep-19 21:10 33.326698 -104.573777 123 35071ft 469kts
21-Sep-19 21:11 33.281231 -104.426357 115 35067ft 475kts
21-Sep-19 21:12 33.237877 -104.276640 116 35057ft 475kts
21-Sep-19 21:13 33.194481 -104.127746 116 35060ft 475kts
21-Sep-19 21:14 33.150681 -103.978232 116 35079ft 475kts
21-Sep-19 21:15 33.107033 -103.829982 116 35098ft 474kts
21-Sep-19 21:16 33.063070 -103.681394 115 35099ft 473kts
21-Sep-19 21:17 33.019231 -103.533970 115 35100ft 471kts
21-Sep-19 21:18 32.975462 -103.387512 114 35101ft 469kts
21-Sep-19 21:19 32.931527 -103.241151 115 35095ft 468kts
21-Sep-19 21:20 32.887646 -103.095730 114 35102ft 467kts
21-Sep-19 21:21 32.843659 -102.950658 113 35103ft 466kts
21-Sep-19 21:22 32.799495 -102.805710 113 35120ft 466kts
21-Sep-19 21:23 32.755225 -102.661081 113 35131ft 465kts
21-Sep-19 21:24 32.710943 -102.517113 113 35132ft 465kts
21-Sep-19 21:25 32.666293 -102.372624 113 35133ft 466kts
21-Sep-19 21:26 32.621657 -102.228793 114 35127ft 465kts
21-Sep-19 21:27 32.576546 -102.084170 114 35117ft 465kts
21-Sep-19 21:28 32.531361 -101.939980 114 35113ft 465kts
21-Sep-19 21:29 32.495993 -101.792031 103 35126ft 471kts
21-Sep-19 21:30 32.472917 -101.639927 103 35130ft 471kts
21-Sep-19 21:31 32.449505 -101.486817 103 35130ft 471kts
21-Sep-19 21:32 32.425932 -101.333970 104 35128ft 471kts
21-Sep-19 21:33 32.402256 -101.181405 104 35117ft 471kts
21-Sep-19 21:34 32.378323 -101.028510 104 35100ft 471kts
21-Sep-19 21:35 32.354313 -100.876466 103 35104ft 472kts
21-Sep-19 21:36 32.329979 -100.723638 102 35110ft 471kts
21-Sep-19 21:37 32.305567 -100.571600 102 35111ft 472kts
21-Sep-19 21:38 32.280871 -100.419053 102 35112ft 471kts
21-Sep-19 21:39 32.256054 -100.266828 103 35097ft 471kts
21-Sep-19 21:40 32.231016 -100.114304 103 35051ft 471kts
21-Sep-19 21:41 32.205808 -99.962051 103 35036ft 471kts
21-Sep-19 21:42 32.185168 -99.808708 93 35041ft 474kts
21-Sep-19 21:43 32.184196 -99.652329 92 35043ft 474kts
21-Sep-19 21:44 32.182478 -99.495388 92 35055ft 474kts
21-Sep-19 21:45 32.180602 -99.339475 92 35070ft 474kts
21-Sep-19 21:46 32.178665 -99.191401 92 35069ft 474kts
21-Sep-19 21:47 32.176420 -99.035627 92 33938ft 472kts
21-Sep-19 21:48 32.173969 -98.879262 92 33137ft 475kts
21-Sep-19 21:49 32.173870 -98.722911 85 32347ft 477kts
21-Sep-19 21:50 32.187834 -98.566897 84 31012ft 479kts
21-Sep-19 21:51 32.201652 -98.410830 84 29031ft 480kts
21-Sep-19 21:52 32.214852 -98.261169 85 27088ft 464kts
21-Sep-19 21:53 32.227364 -98.117541 85 25111ft 437kts
21-Sep-19 21:54 32.239317 -97.978383 86 23096ft 416kts
21-Sep-19 21:55 32.250609 -97.845170 86 21081ft 399kts
21-Sep-19 21:56 32.260926 -97.716493 86 19071ft 386kts
21-Sep-19 21:57 32.270958 -97.592400 86 17067ft 373kts
21-Sep-19 21:58 32.286382 -97.473065 71 15092ft 364kts
21-Sep-19 21:59 32.328747 -97.366940 65 13384ft 348kts
21-Sep-19 22:00 32.370062 -97.267190 66 11904ft 328kts
21-Sep-19 22:01 32.408328 -97.173557 66 10688ft 308kts
21-Sep-19 22:02 32.445176 -97.083000 66 9274ft 298kts
21-Sep-19 22:03 32.480325 -96.994531 67 8742ft 295kts
21-Sep-19 22:04 32.514657 -96.907610 67 7740ft 289kts
21-Sep-19 22:05 32.549627 -96.822413 66 6737ft 285kts
21-Sep-19 22:06 32.590498 -96.742788 54 5740ft 283kts
21-Sep-19 22:07 32.638263 -96.669543 54 5020ft 278kts
21-Sep-19 22:08 32.692147 -96.604425 20 5024ft 285kts
21-Sep-19 22:09 32.764357 -96.628206 315 5005ft 275kts
21-Sep-19 22:10 32.817282 -96.685711 315 4874ft 253kts
21-Sep-19 22:11 32.869114 -96.741540 315 4116ft 243kts
21-Sep-19 22:12 32.916920 -96.792981 316 3319ft 220kts
21-Sep-19 22:13 32.962798 -96.842349 315 2685ft 222kts
21-Sep-19 22:14 32.977723 -96.895386 222 2188ft 172kts
21-Sep-19 22:15 32.943694 -96.931626 212 1988ft 154kts
21-Sep-19 22:16 32.908937 -96.916503 137 1793ft 143kts
21-Sep-19 22:17 32.886245 -96.890358 138 1383ft 146kts
21-Sep-19 22:18 32.857340 -96.856874 137 513ft 142kts
21-Sep-19 22:19 32.847227 -96.846233 224 490ft 0kts
21-Sep-19 22:20 32.847088 -96.846828 301 489ft 9kts
21-Sep-19 22:21 32.847183 -96.848928 176 488ft 9kts
21-Sep-19 22:22 32.846484 -96.848912 181 487ft 0kts

Navigation Log

Ident Type
Flight plan parsing failed, navigation log unavailable